sensor_id;sensor_type;location;lat;lon;timestamp;P1;durP1;ratioP1;P2;durP2;ratioP2
3918;SDS011;1974;48.670;8.994;2023-08-06T00:00:26;1.90;;;0.70;;
3918;SDS011;1974;48.670;8.994;2023-08-06T00:02:54;0.60;;;0.60;;
3918;SDS011;1974;48.670;8.994;2023-08-06T00:05:20;0.80;;;0.80;;
3918;SDS011;1974;48.670;8.994;2023-08-06T00:07:47;1.10;;;1.00;;
3918;SDS011;1974;48.670;8.994;2023-08-06T00:10:14;0.70;;;0.70;;
3918;SDS011;1974;48.670;8.994;2023-08-06T00:12:41;0.73;;;0.70;;
3918;SDS011;1974;48.670;8.994;2023-08-06T00:15:08;2.87;;;1.20;;
3918;SDS011;1974;48.670;8.994;2023-08-06T00:17:37;0.97;;;0.70;;
3918;SDS011;1974;48.670;8.994;2023-08-06T00:20:04;0.77;;;0.77;;
3918;SDS011;1974;48.670;8.994;2023-08-06T00:22:32;1.00;;;0.90;;
3918;SDS011;1974;48.670;8.994;2023-08-06T00:24:59;0.70;;;0.70;;
3918;SDS011;1974;48.670;8.994;2023-08-06T00:27:26;0.73;;;0.70;;
3918;SDS011;1974;48.670;8.994;2023-08-06T00:29:53;3.90;;;0.80;;
3918;SDS011;1974;48.670;8.994;2023-08-06T00:32:20;0.97;;;0.90;;
3918;SDS011;1974;48.670;8.994;2023-08-06T00:34:48;0.53;;;0.53;;
3918;SDS011;1974;48.670;8.994;2023-08-06T00:37:16;1.10;;;0.97;;
3918;SDS011;1974;48.670;8.994;2023-08-06T00:39:43;1.03;;;0.93;;
3918;SDS011;1974;48.670;8.994;2023-08-06T00:42:10;0.80;;;0.80;;
3918;SDS011;1974;48.670;8.994;2023-08-06T00:44:37;1.10;;;1.00;;
3918;SDS011;1974;48.670;8.994;2023-08-06T00:47:04;0.93;;;0.80;;
3918;SDS011;1974;48.670;8.994;2023-08-06T00:49:33;0.90;;;0.73;;
3918;SDS011;1974;48.670;8.994;2023-08-06T00:52:02;0.80;;;0.80;;
3918;SDS011;1974;48.670;8.994;2023-08-06T00:54:31;1.27;;;0.80;;
3918;SDS011;1974;48.670;8.994;2023-08-06T00:56:58;0.60;;;0.60;;
3918;SDS011;1974;48.670;8.994;2023-08-06T00:59:27;0.83;;;0.83;;
3918;SDS011;1974;48.670;8.994;2023-08-06T01:01:54;1.07;;;0.80;;
3918;SDS011;1974;48.670;8.994;2023-08-06T01:04:21;1.10;;;1.00;;
3918;SDS011;1974;48.670;8.994;2023-08-06T01:06:52;1.07;;;1.00;;
3918;SDS011;1974;48.670;8.994;2023-08-06T01:09:31;2.27;;;1.00;;
3918;SDS011;1974;48.670;8.994;2023-08-06T01:12:06;0.70;;;0.70;;
3918;SDS011;1974;48.670;8.994;2023-08-06T01:14:41;1.50;;;0.73;;
3918;SDS011;1974;48.670;8.994;2023-08-06T01:17:13;0.70;;;0.63;;
3918;SDS011;1974;48.670;8.994;2023-08-06T01:19:41;0.80;;;0.80;;
3918;SDS011;1974;48.670;8.994;2023-08-06T01:22:09;0.80;;;0.80;;
3918;SDS011;1974;48.670;8.994;2023-08-06T01:24:36;1.47;;;0.70;;
3918;SDS011;1974;48.670;8.994;2023-08-06T01:27:04;1.27;;;1.17;;
3918;SDS011;1974;48.670;8.994;2023-08-06T01:29:35;0.80;;;0.70;;
3918;SDS011;1974;48.670;8.994;2023-08-06T01:32:08;1.03;;;0.93;;
3918;SDS011;1974;48.670;8.994;2023-08-06T01:34:36;0.73;;;0.70;;
3918;SDS011;1974;48.670;8.994;2023-08-06T01:37:06;1.50;;;1.07;;
3918;SDS011;1974;48.670;8.994;2023-08-06T01:39:34;1.00;;;0.60;;
3918;SDS011;1974;48.670;8.994;2023-08-06T01:42:01;1.90;;;1.70;;
3918;SDS011;1974;48.670;8.994;2023-08-06T01:44:28;1.80;;;1.10;;
3918;SDS011;1974;48.670;8.994;2023-08-06T01:46:55;1.00;;;0.90;;
3918;SDS011;1974;48.670;8.994;2023-08-06T01:49:22;1.17;;;0.60;;
3918;SDS011;1974;48.670;8.994;2023-08-06T01:51:49;1.37;;;0.83;;
3918;SDS011;1974;48.670;8.994;2023-08-06T01:54:16;0.70;;;0.60;;
3918;SDS011;1974;48.670;8.994;2023-08-06T01:56:44;1.93;;;0.90;;
3918;SDS011;1974;48.670;8.994;2023-08-06T01:59:11;1.13;;;0.63;;
3918;SDS011;1974;48.670;8.994;2023-08-06T02:01:37;1.00;;;0.60;;
3918;SDS011;1974;48.670;8.994;2023-08-06T02:04:04;1.17;;;1.03;;
3918;SDS011;1974;48.670;8.994;2023-08-06T02:06:31;2.30;;;1.47;;
3918;SDS011;1974;48.670;8.994;2023-08-06T02:08:58;1.80;;;0.73;;
3918;SDS011;1974;48.670;8.994;2023-08-06T02:11:24;1.17;;;0.50;;
3918;SDS011;1974;48.670;8.994;2023-08-06T02:13:52;1.03;;;0.80;;
3918;SDS011;1974;48.670;8.994;2023-08-06T02:16:19;0.97;;;0.87;;
3918;SDS011;1974;48.670;8.994;2023-08-06T02:18:46;1.73;;;1.63;;
3918;SDS011;1974;48.670;8.994;2023-08-06T02:21:13;0.70;;;0.70;;
3918;SDS011;1974;48.670;8.994;2023-08-06T02:23:39;1.03;;;0.93;;
3918;SDS011;1974;48.670;8.994;2023-08-06T02:26:06;1.53;;;1.00;;
3918;SDS011;1974;48.670;8.994;2023-08-06T02:28:33;1.10;;;0.70;;
3918;SDS011;1974;48.670;8.994;2023-08-06T02:31:01;1.23;;;1.13;;
3918;SDS011;1974;48.670;8.994;2023-08-06T02:33:28;0.90;;;0.73;;
3918;SDS011;1974;48.670;8.994;2023-08-06T02:36:01;2.07;;;1.30;;
3918;SDS011;1974;48.670;8.994;2023-08-06T02:38:29;0.90;;;0.90;;
3918;SDS011;1974;48.670;8.994;2023-08-06T02:40:56;1.10;;;0.60;;
3918;SDS011;1974;48.670;8.994;2023-08-06T02:43:23;1.00;;;0.90;;
3918;SDS011;1974;48.670;8.994;2023-08-06T02:45:49;1.30;;;0.80;;
3918;SDS011;1974;48.670;8.994;2023-08-06T02:48:17;1.27;;;0.77;;
3918;SDS011;1974;48.670;8.994;2023-08-06T02:50:44;3.57;;;1.63;;
3918;SDS011;1974;48.670;8.994;2023-08-06T02:53:11;0.70;;;0.70;;
3918;SDS011;1974;48.670;8.994;2023-08-06T02:55:38;0.70;;;0.57;;
3918;SDS011;1974;48.670;8.994;2023-08-06T02:58:12;0.90;;;0.60;;
3918;SDS011;1974;48.670;8.994;2023-08-06T03:00:39;0.83;;;0.50;;
3918;SDS011;1974;48.670;8.994;2023-08-06T03:03:06;0.50;;;0.50;;
3918;SDS011;1974;48.670;8.994;2023-08-06T03:05:34;0.70;;;0.63;;
3918;SDS011;1974;48.670;8.994;2023-08-06T03:08:01;2.30;;;0.73;;
3918;SDS011;1974;48.670;8.994;2023-08-06T03:10:28;0.90;;;0.70;;
3918;SDS011;1974;48.670;8.994;2023-08-06T03:12:54;0.70;;;0.40;;
3918;SDS011;1974;48.670;8.994;2023-08-06T03:15:21;1.37;;;0.93;;
3918;SDS011;1974;48.670;8.994;2023-08-06T03:17:48;1.53;;;0.50;;
3918;SDS011;1974;48.670;8.994;2023-08-06T03:20:15;0.60;;;0.60;;
3918;SDS011;1974;48.670;8.994;2023-08-06T03:22:43;0.50;;;0.50;;
3918;SDS011;1974;48.670;8.994;2023-08-06T03:25:10;2.93;;;1.00;;
3918;SDS011;1974;48.670;8.994;2023-08-06T03:27:36;0.73;;;0.73;;
3918;SDS011;1974;48.670;8.994;2023-08-06T03:30:03;1.40;;;0.50;;
3918;SDS011;1974;48.670;8.994;2023-08-06T03:32:31;1.53;;;0.50;;
3918;SDS011;1974;48.670;8.994;2023-08-06T03:34:57;4.27;;;0.80;;
3918;SDS011;1974;48.670;8.994;2023-08-06T03:37:24;0.70;;;0.50;;
3918;SDS011;1974;48.670;8.994;2023-08-06T03:39:52;2.23;;;1.00;;
3918;SDS011;1974;48.670;8.994;2023-08-06T03:42:19;0.80;;;0.50;;
3918;SDS011;1974;48.670;8.994;2023-08-06T03:44:46;3.07;;;0.80;;
3918;SDS011;1974;48.670;8.994;2023-08-06T03:47:13;0.40;;;0.40;;
3918;SDS011;1974;48.670;8.994;2023-08-06T03:49:40;1.87;;;0.80;;
3918;SDS011;1974;48.670;8.994;2023-08-06T03:52:08;0.93;;;0.67;;
3918;SDS011;1974;48.670;8.994;2023-08-06T03:54:35;0.97;;;0.50;;
3918;SDS011;1974;48.670;8.994;2023-08-06T03:57:03;0.40;;;0.40;;
3918;SDS011;1974;48.670;8.994;2023-08-06T03:59:30;0.70;;;0.60;;
3918;SDS011;1974;48.670;8.994;2023-08-06T04:01:57;0.50;;;0.50;;
3918;SDS011;1974;48.670;8.994;2023-08-06T04:04:24;0.90;;;0.60;;
3918;SDS011;1974;48.670;8.994;2023-08-06T04:06:51;0.40;;;0.37;;
3918;SDS011;1974;48.670;8.994;2023-08-06T04:09:17;1.80;;;0.80;;
3918;SDS011;1974;48.670;8.994;2023-08-06T04:11:44;0.77;;;0.63;;
3918;SDS011;1974;48.670;8.994;2023-08-06T04:14:12;1.57;;;0.50;;
3918;SDS011;1974;48.670;8.994;2023-08-06T04:16:39;0.70;;;0.53;;
3918;SDS011;1974;48.670;8.994;2023-08-06T04:19:06;2.87;;;0.50;;
3918;SDS011;1974;48.670;8.994;2023-08-06T04:21:32;0.73;;;0.73;;
3918;SDS011;1974;48.670;8.994;2023-08-06T04:23:59;0.60;;;0.50;;
3918;SDS011;1974;48.670;8.994;2023-08-06T04:26:26;0.47;;;0.47;;
3918;SDS011;1974;48.670;8.994;2023-08-06T04:28:53;0.70;;;0.70;;
3918;SDS011;1974;48.670;8.994;2023-08-06T04:31:21;0.70;;;0.63;;
3918;SDS011;1974;48.670;8.994;2023-08-06T04:33:48;0.50;;;0.40;;
3918;SDS011;1974;48.670;8.994;2023-08-06T04:36:15;0.40;;;0.33;;
3918;SDS011;1974;48.670;8.994;2023-08-06T04:38:41;0.40;;;0.40;;
3918;SDS011;1974;48.670;8.994;2023-08-06T04:41:10;0.50;;;0.50;;
3918;SDS011;1974;48.670;8.994;2023-08-06T04:43:37;1.13;;;0.40;;
3918;SDS011;1974;48.670;8.994;2023-08-06T04:46:03;0.60;;;0.43;;
3918;SDS011;1974;48.670;8.994;2023-08-06T04:48:33;0.40;;;0.40;;
3918;SDS011;1974;48.670;8.994;2023-08-06T04:50:59;0.40;;;0.40;;
3918;SDS011;1974;48.670;8.994;2023-08-06T04:53:26;0.50;;;0.50;;
3918;SDS011;1974;48.670;8.994;2023-08-06T04:55:53;0.30;;;0.30;;
3918;SDS011;1974;48.670;8.994;2023-08-06T04:58:20;0.40;;;0.30;;
3918;SDS011;1974;48.670;8.994;2023-08-06T05:00:46;0.40;;;0.40;;
3918;SDS011;1974;48.670;8.994;2023-08-06T05:03:13;0.60;;;0.40;;
3918;SDS011;1974;48.670;8.994;2023-08-06T05:05:41;1.70;;;0.40;;
3918;SDS011;1974;48.670;8.994;2023-08-06T05:08:13;0.77;;;0.40;;
3918;SDS011;1974;48.670;8.994;2023-08-06T05:10:42;0.40;;;0.30;;
3918;SDS011;1974;48.670;8.994;2023-08-06T05:13:09;2.33;;;0.40;;
3918;SDS011;1974;48.670;8.994;2023-08-06T05:15:35;0.70;;;0.50;;
3918;SDS011;1974;48.670;8.994;2023-08-06T05:18:02;0.30;;;0.30;;
3918;SDS011;1974;48.670;8.994;2023-08-06T05:20:29;3.13;;;0.40;;
3918;SDS011;1974;48.670;8.994;2023-08-06T05:22:57;0.40;;;0.30;;
3918;SDS011;1974;48.670;8.994;2023-08-06T05:25:24;0.30;;;0.30;;
3918;SDS011;1974;48.670;8.994;2023-08-06T05:27:50;0.30;;;0.30;;
3918;SDS011;1974;48.670;8.994;2023-08-06T05:30:18;0.30;;;0.30;;
3918;SDS011;1974;48.670;8.994;2023-08-06T05:32:45;0.50;;;0.30;;
3918;SDS011;1974;48.670;8.994;2023-08-06T05:35:12;0.30;;;0.30;;
3918;SDS011;1974;48.670;8.994;2023-08-06T05:37:38;0.30;;;0.30;;
3918;SDS011;1974;48.670;8.994;2023-08-06T05:40:07;1.47;;;0.40;;
3918;SDS011;1974;48.670;8.994;2023-08-06T05:42:34;0.30;;;0.30;;
3918;SDS011;1974;48.670;8.994;2023-08-06T05:45:01;0.40;;;0.30;;
3918;SDS011;1974;48.670;8.994;2023-08-06T05:47:28;0.40;;;0.40;;
3918;SDS011;1974;48.670;8.994;2023-08-06T05:49:54;0.40;;;0.40;;
3918;SDS011;1974;48.670;8.994;2023-08-06T05:52:21;0.47;;;0.30;;
3918;SDS011;1974;48.670;8.994;2023-08-06T05:54:48;0.40;;;0.30;;
3918;SDS011;1974;48.670;8.994;2023-08-06T05:57:16;0.40;;;0.30;;
3918;SDS011;1974;48.670;8.994;2023-08-06T05:59:43;0.40;;;0.30;;
3918;SDS011;1974;48.670;8.994;2023-08-06T06:02:10;0.40;;;0.37;;
3918;SDS011;1974;48.670;8.994;2023-08-06T06:04:37;3.27;;;0.40;;
3918;SDS011;1974;48.670;8.994;2023-08-06T06:07:04;0.97;;;0.50;;
3918;SDS011;1974;48.670;8.994;2023-08-06T06:09:30;0.30;;;0.30;;
3918;SDS011;1974;48.670;8.994;2023-08-06T06:11:57;0.30;;;0.30;;
3918;SDS011;1974;48.670;8.994;2023-08-06T06:14:25;0.40;;;0.40;;
3918;SDS011;1974;48.670;8.994;2023-08-06T06:16:52;0.40;;;0.30;;
3918;SDS011;1974;48.670;8.994;2023-08-06T06:19:19;0.40;;;0.40;;
3918;SDS011;1974;48.670;8.994;2023-08-06T06:21:45;0.40;;;0.30;;
3918;SDS011;1974;48.670;8.994;2023-08-06T06:24:12;0.40;;;0.30;;
3918;SDS011;1974;48.670;8.994;2023-08-06T06:26:39;1.20;;;0.40;;
3918;SDS011;1974;48.670;8.994;2023-08-06T06:29:06;0.37;;;0.30;;
3918;SDS011;1974;48.670;8.994;2023-08-06T06:31:34;0.30;;;0.30;;
3918;SDS011;1974;48.670;8.994;2023-08-06T06:34:01;0.40;;;0.30;;
3918;SDS011;1974;48.670;8.994;2023-08-06T06:36:27;0.40;;;0.33;;
3918;SDS011;1974;48.670;8.994;2023-08-06T06:38:54;1.60;;;0.60;;
3918;SDS011;1974;48.670;8.994;2023-08-06T06:41:21;3.20;;;0.57;;
3918;SDS011;1974;48.670;8.994;2023-08-06T06:43:48;1.13;;;0.73;;
3918;SDS011;1974;48.670;8.994;2023-08-06T06:46:15;0.40;;;0.30;;
3918;SDS011;1974;48.670;8.994;2023-08-06T06:48:43;0.40;;;0.30;;
3918;SDS011;1974;48.670;8.994;2023-08-06T06:51:10;0.40;;;0.40;;
3918;SDS011;1974;48.670;8.994;2023-08-06T06:53:37;0.63;;;0.30;;
3918;SDS011;1974;48.670;8.994;2023-08-06T06:56:04;0.40;;;0.30;;
3918;SDS011;1974;48.670;8.994;2023-08-06T06:58:31;0.60;;;0.40;;
3918;SDS011;1974;48.670;8.994;2023-08-06T07:00:58;0.37;;;0.30;;
3918;SDS011;1974;48.670;8.994;2023-08-06T07:03:25;0.30;;;0.30;;
3918;SDS011;1974;48.670;8.994;2023-08-06T07:05:56;0.40;;;0.30;;
3918;SDS011;1974;48.670;8.994;2023-08-06T07:08:23;0.40;;;0.30;;
3918;SDS011;1974;48.670;8.994;2023-08-06T07:10:50;0.60;;;0.40;;
3918;SDS011;1974;48.670;8.994;2023-08-06T07:13:25;0.30;;;0.20;;
3918;SDS011;1974;48.670;8.994;2023-08-06T07:15:51;0.30;;;0.20;;
3918;SDS011;1974;48.670;8.994;2023-08-06T07:18:18;0.40;;;0.30;;
3918;SDS011;1974;48.670;8.994;2023-08-06T07:20:47;0.30;;;0.20;;
3918;SDS011;1974;48.670;8.994;2023-08-06T07:23:16;0.40;;;0.30;;
3918;SDS011;1974;48.670;8.994;2023-08-06T07:25:42;0.30;;;0.30;;
3918;SDS011;1974;48.670;8.994;2023-08-06T07:28:09;0.50;;;0.30;;
3918;SDS011;1974;48.670;8.994;2023-08-06T07:30:38;0.30;;;0.20;;
3918;SDS011;1974;48.670;8.994;2023-08-06T07:33:04;0.30;;;0.20;;
3918;SDS011;1974;48.670;8.994;2023-08-06T07:35:31;0.40;;;0.27;;
3918;SDS011;1974;48.670;8.994;2023-08-06T07:37:58;0.30;;;0.23;;
3918;SDS011;1974;48.670;8.994;2023-08-06T07:40:26;0.30;;;0.27;;
3918;SDS011;1974;48.670;8.994;2023-08-06T07:42:53;0.30;;;0.20;;
3918;SDS011;1974;48.670;8.994;2023-08-06T07:45:20;0.30;;;0.30;;
3918;SDS011;1974;48.670;8.994;2023-08-06T07:47:47;0.30;;;0.20;;
3918;SDS011;1974;48.670;8.994;2023-08-06T07:50:14;0.40;;;0.30;;
3918;SDS011;1974;48.670;8.994;2023-08-06T07:52:41;0.30;;;0.20;;
3918;SDS011;1974;48.670;8.994;2023-08-06T07:55:08;2.00;;;0.50;;
3918;SDS011;1974;48.670;8.994;2023-08-06T07:57:36;0.30;;;0.23;;
3918;SDS011;1974;48.670;8.994;2023-08-06T08:00:03;0.30;;;0.30;;
3918;SDS011;1974;48.670;8.994;2023-08-06T08:02:31;0.40;;;0.30;;
3918;SDS011;1974;48.670;8.994;2023-08-06T08:04:58;0.30;;;0.20;;
3918;SDS011;1974;48.670;8.994;2023-08-06T08:07:24;0.30;;;0.30;;
3918;SDS011;1974;48.670;8.994;2023-08-06T08:09:53;0.40;;;0.30;;
3918;SDS011;1974;48.670;8.994;2023-08-06T08:12:20;0.30;;;0.20;;
3918;SDS011;1974;48.670;8.994;2023-08-06T08:14:48;0.47;;;0.30;;
3918;SDS011;1974;48.670;8.994;2023-08-06T08:17:14;0.30;;;0.20;;
3918;SDS011;1974;48.670;8.994;2023-08-06T08:19:41;0.30;;;0.30;;
3918;SDS011;1974;48.670;8.994;2023-08-06T08:22:09;0.40;;;0.30;;
3918;SDS011;1974;48.670;8.994;2023-08-06T08:24:36;0.30;;;0.20;;
3918;SDS011;1974;48.670;8.994;2023-08-06T08:27:03;0.50;;;0.27;;
3918;SDS011;1974;48.670;8.994;2023-08-06T08:29:30;0.30;;;0.20;;
3918;SDS011;1974;48.670;8.994;2023-08-06T08:31:59;0.30;;;0.20;;
3918;SDS011;1974;48.670;8.994;2023-08-06T08:34:25;0.30;;;0.20;;
3918;SDS011;1974;48.670;8.994;2023-08-06T08:36:52;0.30;;;0.20;;
3918;SDS011;1974;48.670;8.994;2023-08-06T08:39:19;0.40;;;0.30;;
3918;SDS011;1974;48.670;8.994;2023-08-06T08:41:45;0.30;;;0.20;;
3918;SDS011;1974;48.670;8.994;2023-08-06T08:44:12;0.40;;;0.30;;
3918;SDS011;1974;48.670;8.994;2023-08-06T08:46:42;0.30;;;0.27;;
3918;SDS011;1974;48.670;8.994;2023-08-06T08:49:11;0.30;;;0.20;;
3918;SDS011;1974;48.670;8.994;2023-08-06T08:51:38;0.30;;;0.23;;
3918;SDS011;1974;48.670;8.994;2023-08-06T08:54:05;0.30;;;0.20;;
3918;SDS011;1974;48.670;8.994;2023-08-06T08:56:34;0.30;;;0.30;;
3918;SDS011;1974;48.670;8.994;2023-08-06T08:59:01;0.30;;;0.23;;
3918;SDS011;1974;48.670;8.994;2023-08-06T09:01:28;0.30;;;0.20;;
3918;SDS011;1974;48.670;8.994;2023-08-06T09:03:56;1.30;;;0.30;;
3918;SDS011;1974;48.670;8.994;2023-08-06T09:06:26;0.30;;;0.30;;
3918;SDS011;1974;48.670;8.994;2023-08-06T09:08:56;0.30;;;0.20;;
3918;SDS011;1974;48.670;8.994;2023-08-06T09:11:28;0.30;;;0.20;;
3918;SDS011;1974;48.670;8.994;2023-08-06T09:14:04;0.30;;;0.20;;
3918;SDS011;1974;48.670;8.994;2023-08-06T09:16:32;0.30;;;0.20;;
3918;SDS011;1974;48.670;8.994;2023-08-06T09:19:06;0.30;;;0.20;;
3918;SDS011;1974;48.670;8.994;2023-08-06T09:21:37;0.30;;;0.20;;
3918;SDS011;1974;48.670;8.994;2023-08-06T09:24:07;0.30;;;0.20;;
3918;SDS011;1974;48.670;8.994;2023-08-06T09:26:34;0.30;;;0.20;;
3918;SDS011;1974;48.670;8.994;2023-08-06T09:29:01;0.30;;;0.20;;
3918;SDS011;1974;48.670;8.994;2023-08-06T09:31:32;0.50;;;0.30;;
3918;SDS011;1974;48.670;8.994;2023-08-06T09:33:59;0.30;;;0.20;;
3918;SDS011;1974;48.670;8.994;2023-08-06T09:36:26;0.30;;;0.20;;
3918;SDS011;1974;48.670;8.994;2023-08-06T09:38:55;0.30;;;0.30;;
3918;SDS011;1974;48.670;8.994;2023-08-06T09:41:28;0.30;;;0.20;;
3918;SDS011;1974;48.670;8.994;2023-08-06T09:43:55;0.30;;;0.20;;
3918;SDS011;1974;48.670;8.994;2023-08-06T09:46:22;0.50;;;0.30;;
3918;SDS011;1974;48.670;8.994;2023-08-06T09:48:48;0.30;;;0.30;;
3918;SDS011;1974;48.670;8.994;2023-08-06T09:51:16;0.30;;;0.20;;
3918;SDS011;1974;48.670;8.994;2023-08-06T09:53:43;0.30;;;0.30;;
3918;SDS011;1974;48.670;8.994;2023-08-06T09:56:11;0.40;;;0.30;;
3918;SDS011;1974;48.670;8.994;2023-08-06T09:58:41;0.30;;;0.30;;
3918;SDS011;1974;48.670;8.994;2023-08-06T10:01:08;0.37;;;0.27;;
3918;SDS011;1974;48.670;8.994;2023-08-06T10:03:37;0.30;;;0.20;;
3918;SDS011;1974;48.670;8.994;2023-08-06T10:06:06;0.30;;;0.20;;
3918;SDS011;1974;48.670;8.994;2023-08-06T10:08:34;0.30;;;0.20;;
3918;SDS011;1974;48.670;8.994;2023-08-06T10:11:01;0.30;;;0.30;;
3918;SDS011;1974;48.670;8.994;2023-08-06T10:13:31;0.30;;;0.30;;
3918;SDS011;1974;48.670;8.994;2023-08-06T10:16:00;0.30;;;0.30;;
3918;SDS011;1974;48.670;8.994;2023-08-06T10:18:29;0.30;;;0.30;;
3918;SDS011;1974;48.670;8.994;2023-08-06T10:20:56;3.70;;;0.30;;
3918;SDS011;1974;48.670;8.994;2023-08-06T10:23:32;0.30;;;0.20;;
3918;SDS011;1974;48.670;8.994;2023-08-06T10:26:03;0.30;;;0.30;;
3918;SDS011;1974;48.670;8.994;2023-08-06T10:28:35;0.30;;;0.20;;
3918;SDS011;1974;48.670;8.994;2023-08-06T10:31:03;0.63;;;0.40;;
3918;SDS011;1974;48.670;8.994;2023-08-06T10:33:40;0.30;;;0.20;;
3918;SDS011;1974;48.670;8.994;2023-08-06T10:36:09;0.30;;;0.30;;
3918;SDS011;1974;48.670;8.994;2023-08-06T10:38:43;0.40;;;0.30;;
3918;SDS011;1974;48.670;8.994;2023-08-06T10:41:15;0.40;;;0.30;;
3918;SDS011;1974;48.670;8.994;2023-08-06T10:43:46;0.40;;;0.30;;
3918;SDS011;1974;48.670;8.994;2023-08-06T10:46:21;0.30;;;0.30;;
3918;SDS011;1974;48.670;8.994;2023-08-06T10:48:49;0.40;;;0.30;;
3918;SDS011;1974;48.670;8.994;2023-08-06T10:51:15;0.40;;;0.40;;
3918;SDS011;1974;48.670;8.994;2023-08-06T10:53:43;0.30;;;0.30;;
3918;SDS011;1974;48.670;8.994;2023-08-06T10:56:13;0.40;;;0.30;;
3918;SDS011;1974;48.670;8.994;2023-08-06T10:58:40;0.30;;;0.30;;
3918;SDS011;1974;48.670;8.994;2023-08-06T11:01:09;0.30;;;0.20;;
3918;SDS011;1974;48.670;8.994;2023-08-06T11:03:37;0.30;;;0.20;;
3918;SDS011;1974;48.670;8.994;2023-08-06T11:06:04;0.30;;;0.20;;
3918;SDS011;1974;48.670;8.994;2023-08-06T11:08:33;0.30;;;0.20;;
3918;SDS011;1974;48.670;8.994;2023-08-06T11:11:07;0.30;;;0.20;;
3918;SDS011;1974;48.670;8.994;2023-08-06T11:13:35;0.30;;;0.30;;
3918;SDS011;1974;48.670;8.994;2023-08-06T11:16:03;0.30;;;0.30;;
3918;SDS011;1974;48.670;8.994;2023-08-06T11:18:31;0.30;;;0.30;;
3918;SDS011;1974;48.670;8.994;2023-08-06T11:20:59;0.30;;;0.30;;
3918;SDS011;1974;48.670;8.994;2023-08-06T11:23:26;0.50;;;0.30;;
3918;SDS011;1974;48.670;8.994;2023-08-06T11:25:54;0.40;;;0.30;;
3918;SDS011;1974;48.670;8.994;2023-08-06T11:28:21;0.30;;;0.20;;
3918;SDS011;1974;48.670;8.994;2023-08-06T11:30:47;0.30;;;0.30;;
3918;SDS011;1974;48.670;8.994;2023-08-06T11:33:14;0.30;;;0.30;;
3918;SDS011;1974;48.670;8.994;2023-08-06T11:35:47;0.40;;;0.30;;
3918;SDS011;1974;48.670;8.994;2023-08-06T11:38:14;0.30;;;0.30;;
3918;SDS011;1974;48.670;8.994;2023-08-06T11:40:43;3.03;;;0.40;;
3918;SDS011;1974;48.670;8.994;2023-08-06T11:43:10;0.40;;;0.40;;
3918;SDS011;1974;48.670;8.994;2023-08-06T11:45:37;0.40;;;0.30;;
3918;SDS011;1974;48.670;8.994;2023-08-06T11:48:04;0.40;;;0.30;;
3918;SDS011;1974;48.670;8.994;2023-08-06T11:50:31;0.50;;;0.30;;
3918;SDS011;1974;48.670;8.994;2023-08-06T11:53:03;0.30;;;0.30;;
3918;SDS011;1974;48.670;8.994;2023-08-06T11:55:30;0.47;;;0.40;;
3918;SDS011;1974;48.670;8.994;2023-08-06T11:57:58;0.57;;;0.40;;
3918;SDS011;1974;48.670;8.994;2023-08-06T12:00:29;0.40;;;0.40;;
3918;SDS011;1974;48.670;8.994;2023-08-06T12:02:56;0.40;;;0.30;;
3918;SDS011;1974;48.670;8.994;2023-08-06T12:05:23;0.30;;;0.30;;
3918;SDS011;1974;48.670;8.994;2023-08-06T12:07:55;0.30;;;0.30;;
3918;SDS011;1974;48.670;8.994;2023-08-06T12:10:26;0.47;;;0.30;;
3918;SDS011;1974;48.670;8.994;2023-08-06T12:12:53;0.40;;;0.40;;
3918;SDS011;1974;48.670;8.994;2023-08-06T12:15:22;0.40;;;0.30;;
3918;SDS011;1974;48.670;8.994;2023-08-06T12:17:49;0.47;;;0.40;;
3918;SDS011;1974;48.670;8.994;2023-08-06T12:20:16;0.40;;;0.30;;
3918;SDS011;1974;48.670;8.994;2023-08-06T12:22:43;3.70;;;0.30;;
3918;SDS011;1974;48.670;8.994;2023-08-06T12:25:11;0.30;;;0.30;;
3918;SDS011;1974;48.670;8.994;2023-08-06T12:27:40;0.63;;;0.37;;
3918;SDS011;1974;48.670;8.994;2023-08-06T12:30:08;0.40;;;0.30;;
3918;SDS011;1974;48.670;8.994;2023-08-06T12:32:36;0.40;;;0.30;;
3918;SDS011;1974;48.670;8.994;2023-08-06T12:35:04;0.40;;;0.40;;
3918;SDS011;1974;48.670;8.994;2023-08-06T12:37:32;0.60;;;0.60;;
3918;SDS011;1974;48.670;8.994;2023-08-06T12:39:59;0.40;;;0.30;;
3918;SDS011;1974;48.670;8.994;2023-08-06T12:42:26;0.40;;;0.30;;
3918;SDS011;1974;48.670;8.994;2023-08-06T12:44:54;0.30;;;0.30;;
3918;SDS011;1974;48.670;8.994;2023-08-06T12:47:21;0.40;;;0.40;;
3918;SDS011;1974;48.670;8.994;2023-08-06T12:49:47;0.30;;;0.30;;
3918;SDS011;1974;48.670;8.994;2023-08-06T12:52:15;0.33;;;0.30;;
3918;SDS011;1974;48.670;8.994;2023-08-06T12:54:42;0.40;;;0.30;;
3918;SDS011;1974;48.670;8.994;2023-08-06T12:57:11;0.37;;;0.30;;
3918;SDS011;1974;48.670;8.994;2023-08-06T12:59:37;0.40;;;0.30;;
3918;SDS011;1974;48.670;8.994;2023-08-06T13:02:06;0.40;;;0.40;;
3918;SDS011;1974;48.670;8.994;2023-08-06T13:04:32;0.57;;;0.40;;
3918;SDS011;1974;48.670;8.994;2023-08-06T13:06:59;0.37;;;0.30;;
3918;SDS011;1974;48.670;8.994;2023-08-06T13:09:26;0.30;;;0.27;;
3918;SDS011;1974;48.670;8.994;2023-08-06T13:11:53;0.40;;;0.40;;
3918;SDS011;1974;48.670;8.994;2023-08-06T13:14:20;0.50;;;0.37;;
3918;SDS011;1974;48.670;8.994;2023-08-06T13:16:47;0.40;;;0.30;;
3918;SDS011;1974;48.670;8.994;2023-08-06T13:19:15;0.50;;;0.40;;
3918;SDS011;1974;48.670;8.994;2023-08-06T13:22:00;0.40;;;0.37;;
3918;SDS011;1974;48.670;8.994;2023-08-06T13:24:30;0.40;;;0.40;;
3918;SDS011;1974;48.670;8.994;2023-08-06T13:26:57;0.40;;;0.40;;
3918;SDS011;1974;48.670;8.994;2023-08-06T13:29:24;0.40;;;0.30;;
3918;SDS011;1974;48.670;8.994;2023-08-06T13:31:51;0.30;;;0.30;;
3918;SDS011;1974;48.670;8.994;2023-08-06T13:34:19;0.30;;;0.30;;
3918;SDS011;1974;48.670;8.994;2023-08-06T13:36:46;0.30;;;0.30;;
3918;SDS011;1974;48.670;8.994;2023-08-06T13:39:13;0.93;;;0.50;;
3918;SDS011;1974;48.670;8.994;2023-08-06T13:41:42;0.30;;;0.30;;
3918;SDS011;1974;48.670;8.994;2023-08-06T13:44:09;0.30;;;0.30;;
3918;SDS011;1974;48.670;8.994;2023-08-06T13:46:39;0.40;;;0.30;;
3918;SDS011;1974;48.670;8.994;2023-08-06T13:49:06;0.40;;;0.30;;
3918;SDS011;1974;48.670;8.994;2023-08-06T13:51:34;0.37;;;0.30;;
3918;SDS011;1974;48.670;8.994;2023-08-06T13:54:01;0.40;;;0.30;;
3918;SDS011;1974;48.670;8.994;2023-08-06T13:56:28;0.40;;;0.30;;
3918;SDS011;1974;48.670;8.994;2023-08-06T13:58:55;0.33;;;0.30;;
3918;SDS011;1974;48.670;8.994;2023-08-06T14:01:22;0.50;;;0.40;;
3918;SDS011;1974;48.670;8.994;2023-08-06T14:03:49;0.40;;;0.30;;
3918;SDS011;1974;48.670;8.994;2023-08-06T14:06:15;0.40;;;0.40;;
3918;SDS011;1974;48.670;8.994;2023-08-06T14:08:43;0.37;;;0.37;;
3918;SDS011;1974;48.670;8.994;2023-08-06T14:11:10;0.60;;;0.37;;
3918;SDS011;1974;48.670;8.994;2023-08-06T14:13:37;0.60;;;0.60;;
3918;SDS011;1974;48.670;8.994;2023-08-06T14:16:04;0.40;;;0.30;;
3918;SDS011;1974;48.670;8.994;2023-08-06T14:18:30;0.30;;;0.30;;
3918;SDS011;1974;48.670;8.994;2023-08-06T14:20:57;0.40;;;0.33;;
3918;SDS011;1974;48.670;8.994;2023-08-06T14:23:24;0.50;;;0.40;;
3918;SDS011;1974;48.670;8.994;2023-08-06T14:25:52;0.40;;;0.30;;
3918;SDS011;1974;48.670;8.994;2023-08-06T14:28:19;0.40;;;0.40;;
3918;SDS011;1974;48.670;8.994;2023-08-06T14:30:46;1.23;;;0.33;;
3918;SDS011;1974;48.670;8.994;2023-08-06T14:33:13;0.43;;;0.40;;
3918;SDS011;1974;48.670;8.994;2023-08-06T14:35:40;0.50;;;0.50;;
3918;SDS011;1974;48.670;8.994;2023-08-06T14:38:06;0.40;;;0.30;;
3918;SDS011;1974;48.670;8.994;2023-08-06T14:40:33;0.40;;;0.30;;
3918;SDS011;1974;48.670;8.994;2023-08-06T14:43:04;0.40;;;0.40;;
3918;SDS011;1974;48.670;8.994;2023-08-06T14:45:31;0.30;;;0.30;;
3918;SDS011;1974;48.670;8.994;2023-08-06T14:47:58;0.80;;;0.53;;
3918;SDS011;1974;48.670;8.994;2023-08-06T14:50:25;0.50;;;0.40;;
3918;SDS011;1974;48.670;8.994;2023-08-06T14:52:51;0.50;;;0.50;;
3918;SDS011;1974;48.670;8.994;2023-08-06T14:55:22;0.40;;;0.40;;
3918;SDS011;1974;48.670;8.994;2023-08-06T14:57:50;0.50;;;0.40;;
3918;SDS011;1974;48.670;8.994;2023-08-06T15:00:18;0.30;;;0.30;;
3918;SDS011;1974;48.670;8.994;2023-08-06T15:02:45;0.40;;;0.30;;
3918;SDS011;1974;48.670;8.994;2023-08-06T15:05:12;0.40;;;0.40;;
3918;SDS011;1974;48.670;8.994;2023-08-06T15:07:39;0.40;;;0.40;;
3918;SDS011;1974;48.670;8.994;2023-08-06T15:10:06;0.40;;;0.40;;
3918;SDS011;1974;48.670;8.994;2023-08-06T15:12:33;0.40;;;0.30;;
3918;SDS011;1974;48.670;8.994;2023-08-06T15:15:00;0.43;;;0.37;;
3918;SDS011;1974;48.670;8.994;2023-08-06T15:17:28;0.50;;;0.40;;